Archival Weather

Salzburg

Salzburg, Austria (LOWS)

Report from: Thursday, September 21, 2023 11:20 AM CEST
Current time: Friday, July 19, 2024 4:25 AM CEST

Current weather – Weather history – Daily summaries
Weather forecast

Temperature24.0°C (75.2°F)
Dew point15.0°C (59.0°F)
Winds 2 kts (1 m/s, 2.3 mph) Vrb
Winds variableWinds variable
Visibility6.2 mi. (10 km)
Clouds Few clouds 7,000 ft. (2,134 m)
Altimeter29.71 in.Hg (1006 mB)
Relative humidity57 %
Density altitude1,525 ft. (465 m)
Remarks No significant changes expected in the next two hours
Flight conditions Visual Meteorological Conditions
Raw dataLOWS 210920Z VRB02KT 9999 FEW070 24/15 Q1006 NOSIG
An error has occurred. This application may no longer respond until reloaded. Reload 🗙